createdAt,value
2019-05-11T11:30:33.588Z,53760.00
2019-05-11T11:31:33.569Z,54048.00
2019-05-11T11:32:33.561Z,57952.00
2019-05-11T11:33:33.550Z,54624.00
2019-05-11T11:34:33.543Z,55872.00
2019-05-11T11:35:33.536Z,50816.00
2019-05-11T11:36:33.521Z,47744.00
2019-05-11T11:37:33.526Z,35264.00
2019-05-11T11:38:33.491Z,24352.00
2019-05-11T11:39:33.480Z,21664.00
2019-05-11T11:40:33.478Z,16160.00
2019-05-11T11:41:33.459Z,19648.00
2019-05-11T11:42:33.529Z,21472.00
2019-05-11T11:43:33.438Z,27648.00
2019-05-11T11:44:33.427Z,23328.00
2019-05-11T11:45:33.425Z,20608.00
2019-05-11T11:46:47.518Z,20256.00
2019-05-11T11:47:34.405Z,18304.00
2019-05-11T11:48:33.381Z,23072.00
2019-05-11T11:49:33.371Z,34208.00
2019-05-11T11:50:33.371Z,32928.00
2019-05-11T11:51:33.349Z,17920.00
2019-05-11T11:52:33.337Z,23488.00
2019-05-11T11:53:33.326Z,19168.00
2019-05-11T11:54:33.316Z,18368.00
2019-05-11T11:55:33.319Z,28512.00
2019-05-11T11:56:33.295Z,18176.00
2019-05-11T11:57:33.281Z,12824.00
2019-05-11T11:58:33.270Z,16416.00
2019-05-11T11:59:33.261Z,28192.00
2019-05-11T12:00:33.250Z,34336.00
2019-05-11T12:01:33.247Z,31104.00
2019-05-11T12:02:33.226Z,42560.00
2019-05-11T12:03:33.217Z,22112.00
2019-05-11T12:04:33.208Z,37472.00
2019-05-11T12:05:33.192Z,19456.00
2019-05-11T12:06:33.191Z,20384.00
2019-05-11T12:07:33.173Z,24800.00
2019-05-11T12:08:33.163Z,17184.00
2019-05-11T12:09:33.149Z,17984.00
2019-05-11T12:10:33.138Z,16288.00
2019-05-11T12:11:33.136Z,17024.00
2019-05-11T12:12:33.114Z,13820.00
2019-05-11T12:13:33.103Z,12636.00
2019-05-11T12:14:33.094Z,10100.00
2019-05-11T12:15:33.096Z,10816.00
2019-05-11T12:16:33.080Z,12464.00
2019-05-11T12:17:33.060Z,15648.00
2019-05-11T12:18:33.048Z,17376.00
2019-05-11T12:19:33.041Z,24128.00
2019-05-11T12:20:33.031Z,28064.00
2019-05-11T12:21:33.023Z,33728.00
2019-05-11T12:22:33.015Z,36448.00
2019-05-11T12:23:33.002Z,31264.00
2019-05-11T12:24:33.002Z,22144.00
2019-05-11T12:25:32.970Z,32896.00
2019-05-11T12:26:32.968Z,32832.00
2019-05-11T12:27:32.949Z,18144.00
2019-05-11T12:28:32.936Z,40672.00
2019-05-11T12:29:32.927Z,40896.00
2019-05-11T12:30:32.915Z,39008.00
2019-05-11T12:31:32.913Z,17984.00
2019-05-11T12:32:32.892Z,14944.00
2019-05-11T12:33:32.882Z,13708.00
2019-05-11T12:34:32.874Z,29184.00
2019-05-11T12:35:32.864Z,64960.00
2019-05-11T12:36:32.860Z,60320.00
2019-05-11T12:37:32.837Z,59904.00
2019-05-11T12:38:32.826Z,21792.00
2019-05-11T12:39:32.819Z,17696.00
2019-05-11T12:40:32.810Z,13276.00
2019-05-11T12:41:32.805Z,27712.00
2019-05-11T12:42:32.783Z,21984.00
2019-05-11T12:43:32.800Z,13272.00
2019-05-11T12:44:32.762Z,17600.00
2019-05-11T12:45:32.754Z,17984.00
2019-05-11T12:46:32.748Z,11520.00
2019-05-11T12:47:32.732Z,11856.00
2019-05-11T12:48:32.719Z,14844.00
2019-05-11T12:49:32.708Z,15532.00
2019-05-11T12:50:32.695Z,15012.00
2019-05-11T12:51:32.695Z,14900.00
2019-05-11T12:52:32.676Z,13396.00
2019-05-11T12:53:32.664Z,13664.00
2019-05-11T12:54:34.100Z,9036.00
2019-05-11T12:55:32.643Z,6300.00
2019-05-11T12:56:32.639Z,7364.00
2019-05-11T12:57:32.618Z,9944.00
2019-05-11T12:58:32.607Z,14260.00
2019-05-11T12:59:32.596Z,18336.00
2019-05-11T13:00:32.587Z,20512.00
2019-05-11T13:01:32.587Z,20896.00
2019-05-11T13:02:32.573Z,16672.00
2019-05-11T13:03:32.555Z,12256.00
2019-05-11T13:04:32.543Z,8980.00
2019-05-11T13:05:32.530Z,7024.00
2019-05-11T13:06:32.522Z,5808.00
2019-05-11T13:07:32.516Z,5332.00
2019-05-11T13:08:32.498Z,5844.00
2019-05-11T13:09:32.485Z,6924.00
2019-05-11T13:10:32.477Z,9164.00
2019-05-11T13:11:32.463Z,11936.00
2019-05-11T13:12:32.465Z,13224.00
2019-05-11T13:13:32.442Z,13632.00
2019-05-11T13:14:32.431Z,14436.00
2019-05-11T13:15:32.419Z,15604.00
2019-05-11T13:16:32.411Z,16928.00
2019-05-11T13:17:36.946Z,18176.00
2019-05-11T13:18:33.387Z,17664.00
2019-05-11T13:19:32.375Z,18496.00
2019-05-11T13:20:32.365Z,18112.00
2019-05-11T13:21:32.354Z,18432.00
2019-05-11T13:22:32.352Z,16420.00
2019-05-11T13:23:32.331Z,17888.00
2019-05-11T13:24:32.322Z,16384.00
2019-05-11T13:25:32.310Z,12808.00
2019-05-11T13:26:32.302Z,12164.00
2019-05-11T13:27:32.296Z,14052.00
2019-05-11T13:28:32.276Z,14376.00
2019-05-11T13:29:32.266Z,13064.00
2019-05-11T13:30:32.254Z,12052.00
2019-05-11T13:31:32.244Z,12396.00
2019-05-11T13:32:32.244Z,11484.00
2019-05-11T13:33:32.221Z,10544.00
2019-05-11T13:34:32.212Z,9616.00
2019-05-11T13:35:32.199Z,9288.00
2019-05-11T13:36:32.194Z,8724.00
2019-05-11T13:37:32.191Z,8344.00
2019-05-11T13:38:32.166Z,8944.00
2019-05-11T13:39:32.162Z,8336.00
2019-05-11T13:40:32.146Z,8888.00
2019-05-11T13:41:32.134Z,10924.00
2019-05-11T13:42:32.135Z,14536.00
2019-05-11T13:43:32.114Z,18816.00
2019-05-11T13:44:32.099Z,19264.00
2019-05-11T13:45:32.092Z,19840.00
2019-05-11T13:46:32.079Z,17920.00
2019-05-11T13:47:32.078Z,22912.00
2019-05-11T13:48:32.055Z,22464.00
2019-05-11T13:49:32.696Z,16448.00
2019-05-11T13:50:32.035Z,17088.00
2019-05-11T13:51:32.022Z,13952.00
2019-05-11T13:52:32.023Z,19488.00
2019-05-11T13:53:32.003Z,15156.00
2019-05-11T13:54:31.990Z,14300.00
2019-05-11T13:55:31.979Z,14364.00
2019-05-11T13:56:32.423Z,14372.00
2019-05-11T13:57:31.963Z,13864.00
2019-05-11T13:58:31.945Z,12528.00
2019-05-11T13:59:31.933Z,12424.00
2019-05-11T14:00:31.925Z,11800.00
2019-05-11T14:01:31.912Z,13192.00
2019-05-11T14:02:31.912Z,13000.00
2019-05-11T14:03:31.888Z,12212.00
2019-05-11T14:04:31.880Z,11504.00
2019-05-11T14:05:31.868Z,11332.00
2019-05-11T14:06:31.866Z,11440.00
2019-05-11T14:07:31.883Z,12096.00
2019-05-11T14:08:31.835Z,12736.00
2019-05-11T14:09:31.826Z,15212.00
2019-05-11T14:10:31.811Z,12816.00
2019-05-11T14:11:31.801Z,12368.00
2019-05-11T14:12:31.805Z,12844.00
2019-05-11T14:13:31.779Z,13612.00
2019-05-11T14:14:31.770Z,12612.00
2019-05-11T14:15:31.757Z,13720.00
2019-05-11T14:16:31.748Z,12980.00
2019-05-11T14:17:32.039Z,11704.00
2019-05-11T14:18:31.723Z,11516.00
2019-05-11T14:19:31.721Z,11592.00
2019-05-11T14:20:31.701Z,12168.00
2019-05-11T14:21:31.692Z,18432.00
2019-05-11T14:22:31.690Z,50560.00
2019-05-11T14:23:31.673Z,34688.00
2019-05-11T14:24:31.663Z,22752.00
2019-05-11T14:25:31.648Z,20224.00
2019-05-11T14:26:31.638Z,19456.00
2019-05-11T14:27:31.638Z,19360.00
2019-05-11T14:28:31.621Z,26112.00
2019-05-11T14:29:31.609Z,40704.00
2019-05-11T14:30:31.593Z,51424.00
2019-05-11T14:31:31.581Z,54080.00
2019-05-11T14:32:31.583Z,57248.00
2019-05-11T14:33:31.560Z,57376.00
2019-05-11T14:34:31.550Z,43584.00
2019-05-11T14:35:31.538Z,55328.00
2019-05-11T14:36:31.525Z,56064.00
2019-05-11T14:37:31.531Z,60000.00
2019-05-11T14:38:31.510Z,53120.00
2019-05-11T14:39:31.496Z,49216.00
2019-05-11T14:40:31.486Z,55648.00
2019-05-11T14:41:31.473Z,47968.00
2019-05-11T14:42:31.459Z,28160.00
2019-05-11T14:43:31.460Z,21312.00
2019-05-11T14:44:31.441Z,11772.00
2019-05-11T14:45:31.434Z,11512.00
2019-05-11T14:46:31.420Z,12260.00
2019-05-11T14:47:31.406Z,21024.00
2019-05-11T14:48:31.406Z,19104.00
2019-05-11T14:49:31.384Z,12968.00
2019-05-11T14:50:31.375Z,11580.00
2019-05-11T14:51:31.366Z,10980.00
2019-05-11T14:52:31.353Z,11356.00
2019-05-11T14:53:31.351Z,12112.00
2019-05-11T14:54:31.331Z,17856.00
2019-05-11T14:55:31.319Z,26944.00
2019-05-11T14:56:31.310Z,44128.00
2019-05-11T14:57:31.298Z,46464.00
2019-05-11T14:58:31.296Z,43328.00
2019-05-11T14:59:31.275Z,40704.00
2019-05-11T15:00:31.263Z,26048.00
2019-05-11T15:01:31.253Z,34624.00
2019-05-11T15:02:31.243Z,52320.00
2019-05-11T15:03:31.245Z,47968.00
2019-05-11T15:04:31.220Z,47840.00
2019-05-11T15:05:31.217Z,21056.00
2019-05-11T15:06:31.202Z,33792.00
2019-05-11T15:07:31.192Z,43072.00
2019-05-11T15:08:31.186Z,50272.00
2019-05-11T15:09:31.164Z,53536.00
2019-05-11T15:10:31.152Z,6068.00
2019-05-11T15:11:31.141Z,49152.00
2019-05-11T15:12:31.137Z,37568.00
2019-05-11T15:13:31.127Z,42080.00
2019-05-11T15:14:31.107Z,31264.00
2019-05-11T15:15:31.107Z,6596.00
2019-05-11T15:16:31.094Z,4528.00
2019-05-11T15:17:31.074Z,4276.00
2019-05-11T15:18:38.651Z,4180.00
2019-05-11T15:19:32.069Z,4300.00
2019-05-11T15:20:31.041Z,4532.00
2019-05-11T15:21:31.035Z,4424.00
2019-05-11T15:22:31.023Z,4352.00
2019-05-11T15:23:31.017Z,4324.00
2019-05-11T15:24:31.004Z,4304.00
2019-05-11T15:25:30.987Z,4668.00
2019-05-11T15:26:30.978Z,4860.00
2019-05-11T15:27:30.978Z,5128.00
2019-05-11T15:28:30.961Z,5852.00
2019-05-11T15:29:30.945Z,7208.00
2019-05-11T15:30:30.931Z,5948.00
2019-05-11T15:31:30.930Z,5420.00
2019-05-11T15:32:30.916Z,5788.00
2019-05-11T15:33:30.910Z,16416.00
2019-05-11T15:34:30.895Z,8304.00
2019-05-11T15:35:30.876Z,13444.00
2019-05-11T15:36:30.865Z,14976.00
2019-05-11T15:37:30.855Z,8436.00
2019-05-11T15:38:30.851Z,7808.00
2019-05-11T15:39:30.836Z,7460.00
2019-05-11T15:40:30.824Z,6584.00
2019-05-11T15:41:30.819Z,5752.00
2019-05-11T15:42:30.800Z,4272.00
2019-05-11T15:43:30.801Z,3408.00
2019-05-11T15:44:30.779Z,3028.00
2019-05-11T15:45:30.766Z,2980.00
2019-05-11T15:46:30.759Z,3536.00
2019-05-11T15:47:30.742Z,4480.00
2019-05-11T15:48:30.745Z,6592.00
2019-05-11T15:49:30.721Z,6364.00
2019-05-11T15:50:30.708Z,5496.00
2019-05-11T15:51:30.697Z,5496.00
2019-05-11T15:52:30.691Z,5284.00
2019-05-11T15:53:30.694Z,4688.00
2019-05-11T15:54:30.667Z,5172.00
2019-05-11T15:55:30.654Z,5668.00
2019-05-11T15:56:30.645Z,5656.00
2019-05-11T15:57:30.634Z,5396.00
2019-05-11T15:58:30.623Z,5180.00
2019-05-11T15:59:30.790Z,4944.00
2019-05-11T16:00:30.603Z,4480.00
2019-05-11T16:01:30.589Z,4176.00
2019-05-11T16:02:30.579Z,3980.00
2019-05-11T16:03:30.568Z,3980.00
2019-05-11T16:04:30.564Z,3796.00
2019-05-11T16:05:30.548Z,3392.00
2019-05-11T16:06:30.536Z,2832.00
2019-05-11T16:07:30.527Z,2844.00
2019-05-11T16:08:30.511Z,3160.00
2019-05-11T16:09:30.512Z,3392.00
2019-05-11T16:10:30.488Z,3448.00
2019-05-11T16:11:30.476Z,3448.00
2019-05-11T16:12:30.469Z,3592.00
2019-05-11T16:13:30.455Z,3716.00
2019-05-11T16:14:30.453Z,3720.00
2019-05-11T16:15:30.432Z,3720.00
2019-05-11T16:16:30.423Z,3636.00
2019-05-11T16:17:30.409Z,3320.00
2019-05-11T16:18:30.398Z,3040.00
2019-05-11T16:19:30.397Z,2908.00
2019-05-11T16:20:30.376Z,2900.00
2019-05-11T16:21:30.371Z,3068.00
2019-05-11T16:22:30.354Z,3452.00
2019-05-11T16:23:30.342Z,3944.00
2019-05-11T16:24:30.340Z,4436.00
2019-05-11T16:25:30.320Z,4592.00
2019-05-11T16:26:30.309Z,4268.00
2019-05-11T16:27:30.306Z,4108.00
2019-05-11T16:28:30.915Z,4136.00
2019-05-11T16:29:30.284Z,4120.00
2019-05-11T16:30:30.269Z,4116.00
2019-05-11T16:31:30.256Z,4528.00
2019-05-11T16:32:30.242Z,5088.00
2019-05-11T16:33:30.231Z,5608.00
2019-05-11T16:34:30.230Z,5672.00
2019-05-11T16:35:30.210Z,5620.00
2019-05-11T16:36:30.197Z,5592.00
2019-05-11T16:37:30.185Z,5696.00
2019-05-11T16:38:30.177Z,6068.00
2019-05-11T16:39:30.171Z,5840.00
2019-05-11T16:40:30.153Z,5140.00
2019-05-11T16:41:30.141Z,5100.00
2019-05-11T16:42:30.661Z,5056.00
2019-05-11T16:43:30.130Z,5008.00
2019-05-11T16:44:30.116Z,4968.00
2019-05-11T16:45:30.107Z,4732.00
2019-05-11T16:46:30.090Z,4684.00
2019-05-11T16:47:30.076Z,4792.00
2019-05-11T16:48:30.065Z,4596.00
2019-05-11T16:49:32.467Z,4260.00
2019-05-11T16:50:30.056Z,4180.00
2019-05-11T16:51:30.031Z,4040.00
2019-05-11T16:52:30.018Z,3872.00
2019-05-11T16:53:30.010Z,3668.00
2019-05-11T16:54:30.001Z,3512.00
2019-05-11T16:55:29.993Z,3572.00
2019-05-11T16:56:29.973Z,3668.00
2019-05-11T16:57:29.961Z,3568.00
2019-05-11T16:58:29.952Z,3592.00
2019-05-11T16:59:29.941Z,3780.00
2019-05-11T17:00:29.937Z,3852.00
2019-05-11T17:01:29.919Z,3804.00
2019-05-11T17:02:30.424Z,3804.00
2019-05-11T17:03:29.894Z,3904.00
2019-05-11T17:04:31.313Z,3980.00
2019-05-11T17:05:33.538Z,3956.00
2019-05-11T17:06:31.857Z,3924.00
2019-05-11T17:07:30.096Z,3580.00
2019-05-11T17:08:29.838Z,3264.00
2019-05-11T17:09:29.831Z,3148.00
2019-05-11T17:10:29.824Z,2860.00
2019-05-11T17:11:29.805Z,2480.00
2019-05-11T17:12:29.794Z,2320.00
2019-05-11T17:13:29.784Z,2160.00
2019-05-11T17:14:29.770Z,2124.00
2019-05-11T17:15:29.774Z,2176.00
2019-05-11T17:16:29.751Z,2136.00
2019-05-11T17:17:29.755Z,1964.00
2019-05-11T17:18:29.729Z,1744.00
2019-05-11T17:19:42.880Z,1472.00
2019-05-11T17:20:30.724Z,1148.00
2019-05-11T17:21:30.047Z,904.00
2019-05-11T17:22:29.681Z,868.00
2019-05-11T17:23:31.093Z,824.00
2019-05-11T17:24:29.659Z,884.00
2019-05-11T17:25:29.659Z,988.00
2019-05-11T17:26:29.639Z,1140.00
2019-05-11T17:27:29.626Z,1196.00
2019-05-11T17:28:29.616Z,1316.00
2019-05-11T17:29:29.605Z,1508.00
2019-05-11T17:30:29.601Z,1652.00
2019-05-11T17:31:29.581Z,1720.00
2019-05-11T17:32:29.572Z,1756.00
2019-05-11T17:33:29.561Z,1788.00
2019-05-11T17:34:29.547Z,1808.00
2019-05-11T17:35:29.546Z,1832.00
2019-05-11T17:36:29.525Z,1796.00
2019-05-11T17:37:29.513Z,1788.00
2019-05-11T17:38:29.506Z,1948.00
2019-05-11T17:39:29.493Z,2276.00
2019-05-11T17:40:29.491Z,2608.00
2019-05-11T17:41:29.469Z,2840.00
2019-05-11T17:42:29.457Z,2748.00
2019-05-11T17:43:29.448Z,2616.00
2019-05-11T17:44:29.438Z,2592.00
2019-05-11T17:45:29.432Z,2540.00
2019-05-11T17:46:29.414Z,2304.00
2019-05-11T17:47:29.401Z,2252.00
2019-05-11T17:48:29.393Z,2300.00
2019-05-11T17:49:29.382Z,2432.00
2019-05-11T17:50:29.381Z,2488.00
2019-05-11T17:51:29.361Z,2580.00
2019-05-11T17:52:29.345Z,2876.00
2019-05-11T17:53:29.336Z,2968.00
2019-05-11T17:54:29.324Z,2848.00
2019-05-11T17:55:29.314Z,2704.00
2019-05-11T17:56:29.309Z,2740.00
2019-05-11T17:57:29.290Z,2940.00
2019-05-11T17:58:29.429Z,2796.00
2019-05-11T17:59:29.268Z,2500.00
2019-05-11T18:00:29.259Z,2116.00
2019-05-11T18:01:29.260Z,1804.00
2019-05-11T18:02:29.238Z,1660.00
2019-05-11T18:03:29.226Z,1500.00
2019-05-11T18:04:29.212Z,1420.00
2019-05-11T18:05:29.202Z,1280.00
2019-05-11T18:06:29.203Z,1124.00
2019-05-11T18:07:30.924Z,1012.00
2019-05-11T18:08:30.956Z,1000.00
2019-05-11T18:09:29.155Z,988.00
2019-05-11T18:10:29.146Z,960.00
2019-05-11T18:11:29.896Z,904.00
2019-05-11T18:12:29.125Z,872.00
2019-05-11T18:13:29.113Z,832.00
2019-05-11T18:14:29.102Z,876.00
2019-05-11T18:15:29.099Z,904.00
2019-05-11T18:16:29.090Z,908.00
2019-05-11T18:17:29.065Z,932.00
2019-05-11T18:18:29.344Z,912.00
2019-05-11T18:19:29.042Z,900.00
2019-05-11T18:20:29.035Z,880.00
2019-05-11T18:21:29.034Z,900.00
2019-05-11T18:22:29.011Z,924.00
2019-05-11T18:23:28.999Z,892.00
2019-05-11T18:24:28.989Z,872.00
2019-05-11T18:25:28.993Z,860.00
2019-05-11T18:26:28.985Z,848.00
2019-05-11T18:27:28.956Z,852.00
2019-05-11T18:28:29.317Z,884.00
2019-05-11T18:29:29.039Z,884.00
2019-05-11T18:30:29.436Z,888.00
2019-05-11T18:31:28.924Z,856.00
2019-05-11T18:32:28.901Z,872.00
2019-05-11T18:33:28.894Z,832.00
2019-05-11T18:34:28.880Z,832.00
2019-05-11T18:35:28.875Z,840.00
2019-05-11T18:36:29.043Z,808.00
2019-05-11T18:37:28.859Z,756.00
2019-05-11T18:38:28.832Z,704.00
2019-05-11T18:39:28.820Z,644.00
2019-05-11T18:40:28.817Z,624.00
2019-05-11T18:41:28.800Z,584.00
2019-05-11T18:42:28.826Z,572.00
2019-05-11T18:43:28.781Z,536.00
2019-05-11T18:44:28.765Z,496.00
2019-05-11T18:45:28.925Z,476.00
2019-05-11T18:46:28.743Z,448.00
2019-05-11T18:47:29.947Z,416.00
2019-05-11T18:48:29.193Z,396.00
2019-05-11T18:49:28.711Z,380.00
2019-05-11T18:50:30.929Z,356.00
2019-05-11T18:51:28.688Z,328.00
2019-05-11T18:52:28.688Z,300.00
2019-05-11T18:53:29.099Z,268.00
2019-05-11T18:54:28.653Z,240.00
2019-05-11T18:55:28.642Z,220.00
2019-05-11T18:56:28.704Z,212.00
2019-05-11T18:57:28.630Z,196.00
2019-05-11T18:58:28.608Z,180.00
2019-05-11T18:59:28.600Z,172.00
2019-05-11T19:00:28.589Z,164.00
2019-05-11T19:01:28.687Z,152.00
2019-05-11T19:02:28.575Z,140.00
2019-05-11T19:03:28.554Z,132.00
2019-05-11T19:04:28.830Z,124.00
2019-05-11T19:05:29.222Z,116.00
2019-05-11T19:06:28.634Z,108.00
2019-05-11T19:07:28.519Z,100.00
2019-05-11T19:08:28.496Z,96.00
2019-05-11T19:09:28.522Z,88.00
2019-05-11T19:10:28.476Z,80.00
2019-05-11T19:11:29.049Z,72.00
2019-05-11T19:12:28.463Z,68.00
2019-05-11T19:13:28.485Z,60.00
2019-05-11T19:14:28.435Z,52.00
2019-05-11T19:15:28.443Z,48.00
2019-05-11T19:16:28.893Z,44.00
2019-05-11T19:17:29.105Z,40.00
2019-05-11T19:18:28.432Z,32.00
2019-05-11T19:19:28.378Z,32.00
2019-05-11T19:20:28.550Z,28.00
2019-05-11T19:21:28.354Z,24.00
2019-05-11T19:22:28.889Z,20.00
2019-05-11T19:23:28.864Z,16.00
2019-05-11T19:24:28.320Z,16.00
2019-05-11T19:25:28.314Z,16.00
2019-05-11T19:26:28.295Z,12.00
2019-05-11T19:27:28.809Z,8.00
2019-05-11T19:28:28.334Z,8.00
2019-05-11T19:29:28.380Z,8.00
2019-05-11T19:30:28.254Z,8.00
2019-05-11T19:31:28.256Z,8.00
2019-05-11T19:32:28.390Z,8.00
2019-05-11T19:33:28.217Z,4.00
2019-05-11T19:34:28.257Z,4.00
2019-05-11T19:35:28.791Z,4.00
2019-05-11T19:36:28.190Z,4.00
2019-05-11T19:37:28.175Z,4.00
2019-05-11T19:38:28.234Z,0.00
2019-05-11T19:39:28.159Z,0.00
2019-05-11T19:40:28.142Z,4.00
2019-05-11T19:41:28.129Z,0.00
2019-05-11T19:42:28.568Z,0.00
2019-05-11T19:43:28.114Z,0.00
2019-05-11T19:44:28.113Z,0.00
2019-05-11T19:45:29.340Z,0.00
2019-05-11T19:46:28.208Z,0.00
2019-05-11T19:47:28.292Z,0.00
2019-05-11T19:48:28.240Z,0.00
2019-05-11T19:49:28.066Z,0.00
2019-05-11T19:50:28.032Z,0.00
2019-05-11T19:51:29.061Z,0.00
2019-05-11T19:52:28.261Z,0.00
2019-05-11T19:53:28.201Z,0.00
2019-05-11T19:54:28.911Z,0.00
2019-05-11T19:55:28.672Z,0.00
2019-05-11T19:56:28.982Z,0.00
2019-05-11T19:57:28.346Z,0.00
2019-05-11T19:58:28.887Z,0.00
2019-05-11T19:59:28.070Z,0.00
2019-05-11T20:00:27.917Z,0.00
2019-05-11T20:01:28.023Z,0.00
2019-05-11T20:02:28.441Z,0.00
2019-05-11T20:03:28.518Z,0.00
2019-05-11T20:04:28.417Z,0.00
2019-05-11T20:05:28.833Z,0.00
2019-05-11T20:06:28.187Z,0.00
2019-05-11T20:07:27.839Z,0.00
2019-05-11T20:08:29.077Z,0.00
2019-05-11T20:09:28.339Z,0.00
2019-05-11T20:10:27.946Z,0.00
2019-05-11T20:11:28.061Z,0.00
2019-05-11T20:12:28.374Z,0.00
2019-05-11T20:13:28.362Z,0.00
2019-05-11T20:14:28.361Z,0.00
2019-05-11T20:15:27.751Z,0.00
2019-05-11T20:16:27.738Z,0.00
2019-05-11T20:17:28.848Z,0.00
2019-05-11T20:18:28.857Z,0.00
2019-05-11T20:19:28.250Z,0.00
2019-05-11T20:20:28.466Z,0.00
2019-05-11T20:21:29.045Z,0.00
2019-05-11T20:22:28.179Z,0.00
2019-05-11T20:23:27.666Z,0.00
2019-05-11T20:24:27.938Z,0.00
2019-05-11T20:25:28.769Z,0.00
2019-05-11T20:26:28.588Z,0.00
2019-05-11T20:27:28.214Z,0.00
2019-05-11T20:28:28.460Z,0.00
2019-05-11T20:29:27.812Z,0.00
2019-05-11T20:30:27.578Z,0.00
2019-05-11T20:31:27.812Z,0.00
2019-05-11T20:32:28.431Z,0.00
2019-05-11T20:33:27.934Z,0.00
2019-05-11T20:34:28.855Z,0.00
2019-05-11T20:35:28.064Z,0.00
2019-05-11T20:36:27.513Z,0.00
2019-05-11T20:37:28.759Z,0.00
2019-05-11T20:38:27.997Z,0.00
2019-05-11T20:39:28.661Z,0.00
2019-05-11T20:40:28.522Z,0.00
2019-05-11T20:41:28.005Z,0.00
2019-05-11T20:42:27.445Z,0.00
2019-05-11T20:43:27.874Z,0.00
2019-05-11T20:44:28.671Z,0.00
2019-05-11T20:45:28.516Z,0.00
2019-05-11T20:46:27.812Z,0.00
2019-05-11T20:47:28.737Z,0.00
2019-05-11T20:48:27.853Z,0.00
2019-05-11T20:49:28.198Z,0.00
2019-05-11T20:50:27.357Z,0.00
2019-05-11T20:51:34.137Z,0.00
2019-05-11T20:52:28.482Z,0.00
2019-05-11T20:53:28.640Z,0.00
2019-05-11T20:54:28.174Z,0.00
2019-05-11T20:55:28.363Z,0.00
2019-05-11T20:56:28.405Z,0.00
2019-05-11T20:57:28.461Z,0.00
2019-05-11T20:58:28.914Z,0.00
2019-05-11T20:59:28.941Z,0.00
2019-05-11T21:00:27.958Z,0.00
2019-05-11T21:01:28.559Z,0.00
2019-05-11T21:02:28.839Z,0.00
2019-05-11T21:03:27.807Z,0.00
2019-05-11T21:04:28.167Z,0.00
